sensor_id;sensor_type;location;lat;lon;timestamp;temperature;humidity
45319;DHT22;31057;48.498;32.260;2023-03-08T00:01:58;2.30;99.90
45319;DHT22;31057;48.498;32.260;2023-03-08T00:04:00;2.30;99.90
45319;DHT22;31057;48.498;32.260;2023-03-08T00:06:05;2.30;99.90
45319;DHT22;31057;48.498;32.260;2023-03-08T00:08:07;2.30;99.90
45319;DHT22;31057;48.498;32.260;2023-03-08T00:10:09;2.20;99.90
45319;DHT22;31057;48.498;32.260;2023-03-08T00:12:11;2.10;99.90
45319;DHT22;31057;48.498;32.260;2023-03-08T00:14:13;2.20;99.90
45319;DHT22;31057;48.498;32.260;2023-03-08T00:16:15;2.20;99.90
45319;DHT22;31057;48.498;32.260;2023-03-08T00:18:17;2.20;99.90
45319;DHT22;31057;48.498;32.260;2023-03-08T00:20:18;2.10;99.90
45319;DHT22;31057;48.498;32.260;2023-03-08T00:22:21;2.00;99.90
45319;DHT22;31057;48.498;32.260;2023-03-08T00:24:23;2.10;99.90
45319;DHT22;31057;48.498;32.260;2023-03-08T00:26:25;2.10;99.90
45319;DHT22;31057;48.498;32.260;2023-03-08T00:28:27;2.10;99.90
45319;DHT22;31057;48.498;32.260;2023-03-08T00:30:29;2.10;99.90
45319;DHT22;31057;48.498;32.260;2023-03-08T00:32:30;2.10;99.90
45319;DHT22;31057;48.498;32.260;2023-03-08T00:34:32;2.20;99.90
45319;DHT22;31057;48.498;32.260;2023-03-08T00:36:34;2.20;99.90
45319;DHT22;31057;48.498;32.260;2023-03-08T00:38:36;2.20;99.90
45319;DHT22;31057;48.498;32.260;2023-03-08T00:40:38;2.10;99.90
45319;DHT22;31057;48.498;32.260;2023-03-08T00:42:39;2.10;99.90
45319;DHT22;31057;48.498;32.260;2023-03-08T00:44:41;2.00;99.90
45319;DHT22;31057;48.498;32.260;2023-03-08T00:46:43;2.00;99.90
45319;DHT22;31057;48.498;32.260;2023-03-08T00:48:45;2.00;99.90
45319;DHT22;31057;48.498;32.260;2023-03-08T00:50:47;1.90;99.90
45319;DHT22;31057;48.498;32.260;2023-03-08T00:52:48;1.90;99.90
45319;DHT22;31057;48.498;32.260;2023-03-08T00:54:50;2.00;99.90
45319;DHT22;31057;48.498;32.260;2023-03-08T00:56:52;2.10;99.90
45319;DHT22;31057;48.498;32.260;2023-03-08T00:58:54;2.10;99.90
45319;DHT22;31057;48.498;32.260;2023-03-08T01:00:56;2.10;99.90
45319;DHT22;31057;48.498;32.260;2023-03-08T01:02:58;2.10;99.90
45319;DHT22;31057;48.498;32.260;2023-03-08T01:04:59;2.00;99.90
45319;DHT22;31057;48.498;32.260;2023-03-08T01:07:01;1.90;99.90
45319;DHT22;31057;48.498;32.260;2023-03-08T01:09:03;1.90;99.90
45319;DHT22;31057;48.498;32.260;2023-03-08T01:11:05;1.80;99.90
45319;DHT22;31057;48.498;32.260;2023-03-08T01:13:07;1.80;99.90
45319;DHT22;31057;48.498;32.260;2023-03-08T01:15:09;1.80;99.90
45319;DHT22;31057;48.498;32.260;2023-03-08T01:17:10;1.80;99.90
45319;DHT22;31057;48.498;32.260;2023-03-08T01:19:12;1.70;99.90
45319;DHT22;31057;48.498;32.260;2023-03-08T01:21:14;1.70;99.90
45319;DHT22;31057;48.498;32.260;2023-03-08T01:23:16;1.80;99.90
45319;DHT22;31057;48.498;32.260;2023-03-08T01:25:18;1.80;99.90
45319;DHT22;31057;48.498;32.260;2023-03-08T01:27:19;1.80;99.90
45319;DHT22;31057;48.498;32.260;2023-03-08T01:29:21;1.80;99.90
45319;DHT22;31057;48.498;32.260;2023-03-08T01:31:24;1.80;99.90
45319;DHT22;31057;48.498;32.260;2023-03-08T01:33:26;1.80;99.90
45319;DHT22;31057;48.498;32.260;2023-03-08T01:35:28;1.80;99.90
45319;DHT22;31057;48.498;32.260;2023-03-08T01:37:30;1.80;99.90
45319;DHT22;31057;48.498;32.260;2023-03-08T01:39:32;1.80;99.90
45319;DHT22;31057;48.498;32.260;2023-03-08T01:41:34;1.80;99.90
45319;DHT22;31057;48.498;32.260;2023-03-08T01:43:37;1.90;99.90
45319;DHT22;31057;48.498;32.260;2023-03-08T01:48:16;1.90;99.90
45319;DHT22;31057;48.498;32.260;2023-03-08T01:50:18;1.80;99.90
45319;DHT22;31057;48.498;32.260;2023-03-08T01:52:25;1.90;99.90
45319;DHT22;31057;48.498;32.260;2023-03-08T01:54:30;1.90;99.90
45319;DHT22;31057;48.498;32.260;2023-03-08T01:56:32;1.80;99.90
45319;DHT22;31057;48.498;32.260;2023-03-08T01:58:36;1.90;99.90
45319;DHT22;31057;48.498;32.260;2023-03-08T02:00:38;1.90;99.90
45319;DHT22;31057;48.498;32.260;2023-03-08T02:02:41;2.00;99.90
45319;DHT22;31057;48.498;32.260;2023-03-08T02:04:44;2.10;99.90
45319;DHT22;31057;48.498;32.260;2023-03-08T02:06:46;2.00;99.90
45319;DHT22;31057;48.498;32.260;2023-03-08T02:08:48;2.00;99.90
45319;DHT22;31057;48.498;32.260;2023-03-08T02:10:50;1.90;99.90
45319;DHT22;31057;48.498;32.260;2023-03-08T02:12:52;1.90;99.90
45319;DHT22;31057;48.498;32.260;2023-03-08T02:14:53;1.90;99.90
45319;DHT22;31057;48.498;32.260;2023-03-08T02:16:56;1.90;99.90
45319;DHT22;31057;48.498;32.260;2023-03-08T02:18:59;1.90;99.90
45319;DHT22;31057;48.498;32.260;2023-03-08T02:21:01;1.80;99.90
45319;DHT22;31057;48.498;32.260;2023-03-08T02:23:16;1.90;99.90
45319;DHT22;31057;48.498;32.260;2023-03-08T02:25:20;1.80;99.90
45319;DHT22;31057;48.498;32.260;2023-03-08T02:27:25;1.90;99.90
45319;DHT22;31057;48.498;32.260;2023-03-08T02:29:27;1.80;99.90
45319;DHT22;31057;48.498;32.260;2023-03-08T02:31:29;1.80;99.90
45319;DHT22;31057;48.498;32.260;2023-03-08T02:33:31;1.80;99.90
45319;DHT22;31057;48.498;32.260;2023-03-08T02:35:35;1.80;99.90
45319;DHT22;31057;48.498;32.260;2023-03-08T02:37:37;1.90;99.90
45319;DHT22;31057;48.498;32.260;2023-03-08T02:39:39;1.80;99.90
45319;DHT22;31057;48.498;32.260;2023-03-08T02:41:40;1.80;99.90
45319;DHT22;31057;48.498;32.260;2023-03-08T02:43:42;1.80;99.90
45319;DHT22;31057;48.498;32.260;2023-03-08T02:45:44;1.90;99.90
45319;DHT22;31057;48.498;32.260;2023-03-08T02:47:46;1.80;99.90
45319;DHT22;31057;48.498;32.260;2023-03-08T02:49:48;1.80;99.90
45319;DHT22;31057;48.498;32.260;2023-03-08T02:51:50;1.80;99.90
45319;DHT22;31057;48.498;32.260;2023-03-08T02:53:51;1.80;99.90
45319;DHT22;31057;48.498;32.260;2023-03-08T02:55:53;1.80;99.90
45319;DHT22;31057;48.498;32.260;2023-03-08T02:57:55;1.80;99.90
45319;DHT22;31057;48.498;32.260;2023-03-08T02:59:57;1.80;99.90
45319;DHT22;31057;48.498;32.260;2023-03-08T03:01:58;1.80;99.90
45319;DHT22;31057;48.498;32.260;2023-03-08T03:04:00;1.80;99.90
45319;DHT22;31057;48.498;32.260;2023-03-08T03:06:02;1.80;99.90
45319;DHT22;31057;48.498;32.260;2023-03-08T03:08:04;1.90;99.90
45319;DHT22;31057;48.498;32.260;2023-03-08T03:10:07;1.90;99.90
45319;DHT22;31057;48.498;32.260;2023-03-08T03:12:09;1.90;99.90
45319;DHT22;31057;48.498;32.260;2023-03-08T03:14:11;1.70;99.90
45319;DHT22;31057;48.498;32.260;2023-03-08T03:16:14;1.70;99.90
45319;DHT22;31057;48.498;32.260;2023-03-08T03:18:16;1.70;99.90
45319;DHT22;31057;48.498;32.260;2023-03-08T03:20:18;1.70;99.90
45319;DHT22;31057;48.498;32.260;2023-03-08T03:22:20;1.60;99.90
45319;DHT22;31057;48.498;32.260;2023-03-08T03:24:21;1.60;99.90
45319;DHT22;31057;48.498;32.260;2023-03-08T03:26:23;1.70;99.90
45319;DHT22;31057;48.498;32.260;2023-03-08T03:28:25;1.80;99.90
45319;DHT22;31057;48.498;32.260;2023-03-08T03:30:27;1.80;99.90
45319;DHT22;31057;48.498;32.260;2023-03-08T03:32:29;1.90;99.90
45319;DHT22;31057;48.498;32.260;2023-03-08T03:34:31;1.80;99.90
45319;DHT22;31057;48.498;32.260;2023-03-08T03:36:32;1.70;99.90
45319;DHT22;31057;48.498;32.260;2023-03-08T03:38:36;1.70;99.90
45319;DHT22;31057;48.498;32.260;2023-03-08T03:40:37;1.70;99.90
45319;DHT22;31057;48.498;32.260;2023-03-08T03:42:39;1.70;99.90
45319;DHT22;31057;48.498;32.260;2023-03-08T03:44:41;1.70;99.90
45319;DHT22;31057;48.498;32.260;2023-03-08T03:46:43;1.70;99.90
45319;DHT22;31057;48.498;32.260;2023-03-08T03:48:45;1.70;99.90
45319;DHT22;31057;48.498;32.260;2023-03-08T03:50:57;1.70;99.90
45319;DHT22;31057;48.498;32.260;2023-03-08T03:52:58;1.80;99.90
45319;DHT22;31057;48.498;32.260;2023-03-08T03:55:00;1.90;99.90
45319;DHT22;31057;48.498;32.260;2023-03-08T03:57:02;1.90;99.90
45319;DHT22;31057;48.498;32.260;2023-03-08T03:59:04;1.80;99.90
45319;DHT22;31057;48.498;32.260;2023-03-08T04:01:06;1.80;99.90
45319;DHT22;31057;48.498;32.260;2023-03-08T04:03:09;1.80;99.90
45319;DHT22;31057;48.498;32.260;2023-03-08T04:05:10;1.80;99.90
45319;DHT22;31057;48.498;32.260;2023-03-08T04:07:12;1.80;99.90
45319;DHT22;31057;48.498;32.260;2023-03-08T04:09:16;1.80;99.90
45319;DHT22;31057;48.498;32.260;2023-03-08T04:11:19;1.70;99.90
45319;DHT22;31057;48.498;32.260;2023-03-08T04:13:21;1.90;99.90
45319;DHT22;31057;48.498;32.260;2023-03-08T04:15:23;1.90;99.90
45319;DHT22;31057;48.498;32.260;2023-03-08T04:17:25;2.10;99.90
45319;DHT22;31057;48.498;32.260;2023-03-08T04:19:26;2.00;99.90
45319;DHT22;31057;48.498;32.260;2023-03-08T04:21:28;2.00;99.90
45319;DHT22;31057;48.498;32.260;2023-03-08T04:23:30;2.00;99.90
45319;DHT22;31057;48.498;32.260;2023-03-08T04:25:32;1.90;99.90
45319;DHT22;31057;48.498;32.260;2023-03-08T04:27:34;1.80;99.90
45319;DHT22;31057;48.498;32.260;2023-03-08T04:29:36;1.80;99.90
45319;DHT22;31057;48.498;32.260;2023-03-08T04:31:37;1.90;99.90
45319;DHT22;31057;48.498;32.260;2023-03-08T04:33:39;1.80;99.90
45319;DHT22;31057;48.498;32.260;2023-03-08T04:35:41;1.90;99.90
45319;DHT22;31057;48.498;32.260;2023-03-08T04:37:43;2.00;99.90
45319;DHT22;31057;48.498;32.260;2023-03-08T04:39:50;2.10;99.90
45319;DHT22;31057;48.498;32.260;2023-03-08T04:41:52;2.00;99.90
45319;DHT22;31057;48.498;32.260;2023-03-08T04:43:54;1.90;99.90
45319;DHT22;31057;48.498;32.260;2023-03-08T04:45:56;1.90;99.90
45319;DHT22;31057;48.498;32.260;2023-03-08T04:47:58;1.90;99.90
45319;DHT22;31057;48.498;32.260;2023-03-08T04:50:00;1.90;99.90
45319;DHT22;31057;48.498;32.260;2023-03-08T04:52:02;1.90;99.90
45319;DHT22;31057;48.498;32.260;2023-03-08T04:54:03;2.00;99.90
45319;DHT22;31057;48.498;32.260;2023-03-08T04:56:06;2.00;99.90
45319;DHT22;31057;48.498;32.260;2023-03-08T04:58:08;2.10;99.90
45319;DHT22;31057;48.498;32.260;2023-03-08T05:00:10;2.50;99.90
45319;DHT22;31057;48.498;32.260;2023-03-08T05:02:13;2.40;99.90
45319;DHT22;31057;48.498;32.260;2023-03-08T05:04:14;2.30;99.90
45319;DHT22;31057;48.498;32.260;2023-03-08T05:06:17;2.40;99.90
45319;DHT22;31057;48.498;32.260;2023-03-08T05:08:19;2.40;99.90
45319;DHT22;31057;48.498;32.260;2023-03-08T05:10:20;2.40;99.90
45319;DHT22;31057;48.498;32.260;2023-03-08T05:12:22;2.40;99.90
45319;DHT22;31057;48.498;32.260;2023-03-08T05:14:24;2.40;99.90
45319;DHT22;31057;48.498;32.260;2023-03-08T05:16:26;2.50;99.90
45319;DHT22;31057;48.498;32.260;2023-03-08T05:18:28;2.60;99.90
45319;DHT22;31057;48.498;32.260;2023-03-08T05:20:30;2.60;99.90
45319;DHT22;31057;48.498;32.260;2023-03-08T05:22:32;2.70;99.90
45319;DHT22;31057;48.498;32.260;2023-03-08T05:24:45;2.80;99.90
45319;DHT22;31057;48.498;32.260;2023-03-08T05:26:48;3.00;99.90
45319;DHT22;31057;48.498;32.260;2023-03-08T05:28:50;2.90;99.90
45319;DHT22;31057;48.498;32.260;2023-03-08T05:31:02;2.90;99.90
45319;DHT22;31057;48.498;32.260;2023-03-08T05:33:04;2.90;99.90
45319;DHT22;31057;48.498;32.260;2023-03-08T05:35:06;2.90;99.90
45319;DHT22;31057;48.498;32.260;2023-03-08T05:37:07;3.30;99.90
45319;DHT22;31057;48.498;32.260;2023-03-08T05:39:09;3.30;99.90
45319;DHT22;31057;48.498;32.260;2023-03-08T05:41:12;3.30;99.90
45319;DHT22;31057;48.498;32.260;2023-03-08T05:43:14;3.30;99.90
45319;DHT22;31057;48.498;32.260;2023-03-08T05:45:16;3.40;99.90
45319;DHT22;31057;48.498;32.260;2023-03-08T05:47:18;3.70;99.90
45319;DHT22;31057;48.498;32.260;2023-03-08T05:49:19;3.70;99.90
45319;DHT22;31057;48.498;32.260;2023-03-08T05:51:21;3.60;99.90
45319;DHT22;31057;48.498;32.260;2023-03-08T05:53:23;3.70;99.90
45319;DHT22;31057;48.498;32.260;2023-03-08T05:55:25;3.80;99.90
45319;DHT22;31057;48.498;32.260;2023-03-08T05:57:27;3.80;99.90
45319;DHT22;31057;48.498;32.260;2023-03-08T05:59:29;3.90;99.90
45319;DHT22;31057;48.498;32.260;2023-03-08T06:01:31;4.00;99.90
45319;DHT22;31057;48.498;32.260;2023-03-08T06:03:32;4.30;99.90
45319;DHT22;31057;48.498;32.260;2023-03-08T06:05:34;4.30;99.90
45319;DHT22;31057;48.498;32.260;2023-03-08T06:07:36;4.20;99.90
45319;DHT22;31057;48.498;32.260;2023-03-08T06:09:38;4.20;99.90
45319;DHT22;31057;48.498;32.260;2023-03-08T06:11:40;4.20;99.90
45319;DHT22;31057;48.498;32.260;2023-03-08T06:13:42;4.30;99.90
45319;DHT22;31057;48.498;32.260;2023-03-08T06:15:44;4.40;99.90
45319;DHT22;31057;48.498;32.260;2023-03-08T06:17:46;4.40;99.90
45319;DHT22;31057;48.498;32.260;2023-03-08T06:19:47;4.40;99.90
45319;DHT22;31057;48.498;32.260;2023-03-08T06:21:49;4.50;99.90
45319;DHT22;31057;48.498;32.260;2023-03-08T06:23:51;4.50;99.90
45319;DHT22;31057;48.498;32.260;2023-03-08T06:25:53;4.50;99.90
45319;DHT22;31057;48.498;32.260;2023-03-08T06:27:55;4.50;99.90
45319;DHT22;31057;48.498;32.260;2023-03-08T06:29:57;4.80;99.90
45319;DHT22;31057;48.498;32.260;2023-03-08T06:31:59;4.80;99.90
45319;DHT22;31057;48.498;32.260;2023-03-08T06:34:02;4.60;99.90
45319;DHT22;31057;48.498;32.260;2023-03-08T06:36:08;4.60;99.90
45319;DHT22;31057;48.498;32.260;2023-03-08T06:38:11;4.60;99.90
45319;DHT22;31057;48.498;32.260;2023-03-08T06:40:13;4.60;99.90
45319;DHT22;31057;48.498;32.260;2023-03-08T06:42:15;4.70;99.90
45319;DHT22;31057;48.498;32.260;2023-03-08T06:44:16;4.70;99.90
45319;DHT22;31057;48.498;32.260;2023-03-08T06:46:18;5.00;99.90
45319;DHT22;31057;48.498;32.260;2023-03-08T06:48:21;4.80;99.90
45319;DHT22;31057;48.498;32.260;2023-03-08T06:50:23;4.70;99.90
45319;DHT22;31057;48.498;32.260;2023-03-08T06:52:25;4.70;99.90
45319;DHT22;31057;48.498;32.260;2023-03-08T06:54:26;4.70;99.90
45319;DHT22;31057;48.498;32.260;2023-03-08T06:56:28;4.80;99.90
45319;DHT22;31057;48.498;32.260;2023-03-08T06:58:30;4.80;99.90
45319;DHT22;31057;48.498;32.260;2023-03-08T07:00:32;4.80;99.90
45319;DHT22;31057;48.498;32.260;2023-03-08T07:02:34;4.90;99.90
45319;DHT22;31057;48.498;32.260;2023-03-08T07:04:36;5.00;99.90
45319;DHT22;31057;48.498;32.260;2023-03-08T07:06:38;5.00;99.90
45319;DHT22;31057;48.498;32.260;2023-03-08T07:08:40;5.00;99.90
45319;DHT22;31057;48.498;32.260;2023-03-08T07:10:42;5.10;99.90
45319;DHT22;31057;48.498;32.260;2023-03-08T07:12:44;5.10;99.90
45319;DHT22;31057;48.498;32.260;2023-03-08T07:14:50;5.20;99.90
45319;DHT22;31057;48.498;32.260;2023-03-08T07:16:52;5.20;99.90
45319;DHT22;31057;48.498;32.260;2023-03-08T07:18:54;5.20;99.90
45319;DHT22;31057;48.498;32.260;2023-03-08T07:20:57;5.10;99.90
45319;DHT22;31057;48.498;32.260;2023-03-08T07:22:59;5.10;99.90
45319;DHT22;31057;48.498;32.260;2023-03-08T07:25:04;5.10;99.90
45319;DHT22;31057;48.498;32.260;2023-03-08T07:27:06;5.10;99.90
45319;DHT22;31057;48.498;32.260;2023-03-08T07:29:07;5.10;99.90
45319;DHT22;31057;48.498;32.260;2023-03-08T07:31:09;5.20;99.90
45319;DHT22;31057;48.498;32.260;2023-03-08T07:33:12;5.20;99.90
45319;DHT22;31057;48.498;32.260;2023-03-08T07:35:14;5.40;99.90
45319;DHT22;31057;48.498;32.260;2023-03-08T07:37:16;5.50;99.90
45319;DHT22;31057;48.498;32.260;2023-03-08T07:39:18;5.40;99.90
45319;DHT22;31057;48.498;32.260;2023-03-08T07:41:20;5.40;99.90
45319;DHT22;31057;48.498;32.260;2023-03-08T07:43:22;5.40;99.90
45319;DHT22;31057;48.498;32.260;2023-03-08T07:45:23;5.40;99.90
45319;DHT22;31057;48.498;32.260;2023-03-08T07:47:25;5.40;99.90
45319;DHT22;31057;48.498;32.260;2023-03-08T07:49:27;5.40;99.90
45319;DHT22;31057;48.498;32.260;2023-03-08T07:51:29;5.50;99.90
45319;DHT22;31057;48.498;32.260;2023-03-08T07:53:31;5.50;99.90
45319;DHT22;31057;48.498;32.260;2023-03-08T07:55:33;5.60;99.90
45319;DHT22;31057;48.498;32.260;2023-03-08T07:57:35;5.70;99.90
45319;DHT22;31057;48.498;32.260;2023-03-08T07:59:37;6.00;99.90
45319;DHT22;31057;48.498;32.260;2023-03-08T08:01:39;6.20;99.90
45319;DHT22;31057;48.498;32.260;2023-03-08T08:03:40;6.30;99.90
45319;DHT22;31057;48.498;32.260;2023-03-08T08:05:42;6.20;99.90
45319;DHT22;31057;48.498;32.260;2023-03-08T08:07:45;6.00;99.90
45319;DHT22;31057;48.498;32.260;2023-03-08T08:09:47;5.90;99.90
45319;DHT22;31057;48.498;32.260;2023-03-08T08:11:48;6.00;99.90
45319;DHT22;31057;48.498;32.260;2023-03-08T08:13:50;6.00;99.90
45319;DHT22;31057;48.498;32.260;2023-03-08T08:15:56;6.00;99.90
45319;DHT22;31057;48.498;32.260;2023-03-08T08:17:58;5.90;99.90
45319;DHT22;31057;48.498;32.260;2023-03-08T08:20:00;5.90;99.90
45319;DHT22;31057;48.498;32.260;2023-03-08T08:22:01;5.90;99.90
45319;DHT22;31057;48.498;32.260;2023-03-08T08:24:03;6.00;99.90
45319;DHT22;31057;48.498;32.260;2023-03-08T08:26:06;6.20;99.90
45319;DHT22;31057;48.498;32.260;2023-03-08T08:28:08;6.30;99.90
45319;DHT22;31057;48.498;32.260;2023-03-08T08:30:11;6.50;99.90
45319;DHT22;31057;48.498;32.260;2023-03-08T08:32:13;6.70;99.90
45319;DHT22;31057;48.498;32.260;2023-03-08T08:34:15;6.80;99.90
45319;DHT22;31057;48.498;32.260;2023-03-08T08:36:17;7.10;99.90
45319;DHT22;31057;48.498;32.260;2023-03-08T08:38:19;7.40;99.90
45319;DHT22;31057;48.498;32.260;2023-03-08T08:40:21;7.50;99.90
45319;DHT22;31057;48.498;32.260;2023-03-08T08:42:23;7.60;99.90
45319;DHT22;31057;48.498;32.260;2023-03-08T08:44:25;7.80;99.90
45319;DHT22;31057;48.498;32.260;2023-03-08T08:46:27;8.00;99.90
45319;DHT22;31057;48.498;32.260;2023-03-08T08:48:29;8.20;99.90
45319;DHT22;31057;48.498;32.260;2023-03-08T08:50:33;8.20;99.90
45319;DHT22;31057;48.498;32.260;2023-03-08T08:52:35;8.60;99.90
45319;DHT22;31057;48.498;32.260;2023-03-08T08:54:37;8.70;99.90
45319;DHT22;31057;48.498;32.260;2023-03-08T08:56:40;8.80;99.90
45319;DHT22;31057;48.498;32.260;2023-03-08T08:58:44;8.90;99.90
45319;DHT22;31057;48.498;32.260;2023-03-08T09:00:48;9.00;99.90
45319;DHT22;31057;48.498;32.260;2023-03-08T09:02:50;9.00;99.90
45319;DHT22;31057;48.498;32.260;2023-03-08T09:04:52;9.10;99.90
45319;DHT22;31057;48.498;32.260;2023-03-08T09:06:54;9.00;99.90
45319;DHT22;31057;48.498;32.260;2023-03-08T09:08:56;9.20;99.90
45319;DHT22;31057;48.498;32.260;2023-03-08T09:11:04;9.20;99.90
45319;DHT22;31057;48.498;32.260;2023-03-08T09:13:06;9.50;99.90
45319;DHT22;31057;48.498;32.260;2023-03-08T09:15:08;9.80;99.90
45319;DHT22;31057;48.498;32.260;2023-03-08T09:17:12;10.00;99.90
45319;DHT22;31057;48.498;32.260;2023-03-08T09:19:13;10.10;99.90
45319;DHT22;31057;48.498;32.260;2023-03-08T09:21:16;10.20;99.90
45319;DHT22;31057;48.498;32.260;2023-03-08T09:23:19;10.20;99.90
45319;DHT22;31057;48.498;32.260;2023-03-08T09:25:21;10.40;99.90
45319;DHT22;31057;48.498;32.260;2023-03-08T09:27:24;10.70;99.90
45319;DHT22;31057;48.498;32.260;2023-03-08T09:29:26;10.90;99.90
45319;DHT22;31057;48.498;32.260;2023-03-08T09:31:28;11.00;99.90
45319;DHT22;31057;48.498;32.260;2023-03-08T09:33:29;11.20;99.90
45319;DHT22;31057;48.498;32.260;2023-03-08T09:35:31;11.40;99.90
45319;DHT22;31057;48.498;32.260;2023-03-08T09:37:33;11.50;99.90
45319;DHT22;31057;48.498;32.260;2023-03-08T09:39:35;11.40;99.90
45319;DHT22;31057;48.498;32.260;2023-03-08T09:41:49;11.20;99.90
45319;DHT22;31057;48.498;32.260;2023-03-08T09:46:12;11.40;99.90
45319;DHT22;31057;48.498;32.260;2023-03-08T09:48:18;11.40;99.90
45319;DHT22;31057;48.498;32.260;2023-03-08T09:50:34;11.50;99.90
45319;DHT22;31057;48.498;32.260;2023-03-08T09:54:39;11.50;99.90
45319;DHT22;31057;48.498;32.260;2023-03-08T09:56:42;11.40;99.90
45319;DHT22;31057;48.498;32.260;2023-03-08T09:58:48;11.50;99.90
45319;DHT22;31057;48.498;32.260;2023-03-08T10:00:51;11.50;99.90
45319;DHT22;31057;48.498;32.260;2023-03-08T10:11:30;11.70;99.90
45319;DHT22;31057;48.498;32.260;2023-03-08T10:13:37;11.80;99.90
45319;DHT22;31057;48.498;32.260;2023-03-08T10:15:45;12.00;99.90
45319;DHT22;31057;48.498;32.260;2023-03-08T10:17:50;12.10;99.90
45319;DHT22;31057;48.498;32.260;2023-03-08T10:19:54;12.20;99.90
45319;DHT22;31057;48.498;32.260;2023-03-08T10:21:57;12.30;99.90
45319;DHT22;31057;48.498;32.260;2023-03-08T10:26:07;12.80;99.90
45319;DHT22;31057;48.498;32.260;2023-03-08T10:28:12;13.00;99.90
45319;DHT22;31057;48.498;32.260;2023-03-08T10:30:16;13.20;99.90
45319;DHT22;31057;48.498;32.260;2023-03-08T10:32:20;13.10;99.90
45319;DHT22;31057;48.498;32.260;2023-03-08T10:34:24;13.20;99.90
45319;DHT22;31057;48.498;32.260;2023-03-08T10:36:29;13.20;99.90
45319;DHT22;31057;48.498;32.260;2023-03-08T10:38:32;13.50;99.90
45319;DHT22;31057;48.498;32.260;2023-03-08T10:40:34;13.50;99.90
45319;DHT22;31057;48.498;32.260;2023-03-08T10:42:36;13.40;99.90
45319;DHT22;31057;48.498;32.260;2023-03-08T10:44:46;13.40;99.90
45319;DHT22;31057;48.498;32.260;2023-03-08T10:46:52;13.20;99.90
45319;DHT22;31057;48.498;32.260;2023-03-08T10:48:54;13.60;99.90
45319;DHT22;31057;48.498;32.260;2023-03-08T10:51:15;13.70;99.90
45319;DHT22;31057;48.498;32.260;2023-03-08T10:53:18;13.60;99.90
45319;DHT22;31057;48.498;32.260;2023-03-08T10:55:22;13.40;99.90
45319;DHT22;31057;48.498;32.260;2023-03-08T10:57:24;13.40;99.90
45319;DHT22;31057;48.498;32.260;2023-03-08T10:59:30;13.30;99.90
45319;DHT22;31057;48.498;32.260;2023-03-08T11:01:46;13.10;99.90
45319;DHT22;31057;48.498;32.260;2023-03-08T11:03:58;13.30;99.90
45319;DHT22;31057;48.498;32.260;2023-03-08T11:06:02;13.40;99.90
45319;DHT22;31057;48.498;32.260;2023-03-08T11:08:13;13.30;99.90
45319;DHT22;31057;48.498;32.260;2023-03-08T11:10:16;13.40;99.90
45319;DHT22;31057;48.498;32.260;2023-03-08T11:12:22;13.30;99.90
45319;DHT22;31057;48.498;32.260;2023-03-08T11:14:25;13.40;99.90
45319;DHT22;31057;48.498;32.260;2023-03-08T11:23:36;13.10;99.90
45319;DHT22;31057;48.498;32.260;2023-03-08T11:25:44;13.20;99.90
45319;DHT22;31057;48.498;32.260;2023-03-08T11:39:05;13.70;99.90
45319;DHT22;31057;48.498;32.260;2023-03-08T11:43:32;13.60;99.90
45319;DHT22;31057;48.498;32.260;2023-03-08T11:45:42;13.80;99.90
45319;DHT22;31057;48.498;32.260;2023-03-08T11:58:37;13.60;99.90
45319;DHT22;31057;48.498;32.260;2023-03-08T12:00:41;13.70;99.90
45319;DHT22;31057;48.498;32.260;2023-03-08T12:02:45;13.60;99.90
45319;DHT22;31057;48.498;32.260;2023-03-08T12:07:04;13.80;99.90
45319;DHT22;31057;48.498;32.260;2023-03-08T12:09:30;13.70;99.90
45319;DHT22;31057;48.498;32.260;2023-03-08T12:11:35;13.60;99.90
45319;DHT22;31057;48.498;32.260;2023-03-08T12:13:39;13.60;99.90
45319;DHT22;31057;48.498;32.260;2023-03-08T12:15:46;13.60;99.90
45319;DHT22;31057;48.498;32.260;2023-03-08T12:17:52;13.60;99.90
45319;DHT22;31057;48.498;32.260;2023-03-08T12:19:54;13.50;99.90
45319;DHT22;31057;48.498;32.260;2023-03-08T12:24:08;13.40;99.90
45319;DHT22;31057;48.498;32.260;2023-03-08T12:28:27;13.30;99.90
45319;DHT22;31057;48.498;32.260;2023-03-08T12:33:27;13.10;99.90
45319;DHT22;31057;48.498;32.260;2023-03-08T12:35:32;13.00;99.90
45319;DHT22;31057;48.498;32.260;2023-03-08T12:37:34;13.00;99.90
45319;DHT22;31057;48.498;32.260;2023-03-08T12:39:36;13.00;99.90
45319;DHT22;31057;48.498;32.260;2023-03-08T12:41:38;12.90;99.90
45319;DHT22;31057;48.498;32.260;2023-03-08T12:43:40;12.90;99.90
45319;DHT22;31057;48.498;32.260;2023-03-08T12:45:42;12.90;99.90
45319;DHT22;31057;48.498;32.260;2023-03-08T12:47:54;12.90;99.90
45319;DHT22;31057;48.498;32.260;2023-03-08T12:49:56;12.90;99.90
45319;DHT22;31057;48.498;32.260;2023-03-08T12:54:19;12.80;99.90
45319;DHT22;31057;48.498;32.260;2023-03-08T12:56:23;12.80;99.90
45319;DHT22;31057;48.498;32.260;2023-03-08T12:58:27;12.80;99.90
45319;DHT22;31057;48.498;32.260;2023-03-08T13:00:34;12.80;99.90
45319;DHT22;31057;48.498;32.260;2023-03-08T13:02:36;12.90;99.90
45319;DHT22;31057;48.498;32.260;2023-03-08T13:04:39;12.90;99.90
45319;DHT22;31057;48.498;32.260;2023-03-08T13:15:31;12.60;99.90
45319;DHT22;31057;48.498;32.260;2023-03-08T13:17:35;12.50;99.90
45319;DHT22;31057;48.498;32.260;2023-03-08T13:19:37;12.40;99.90
45319;DHT22;31057;48.498;32.260;2023-03-08T13:21:39;12.30;99.90
45319;DHT22;31057;48.498;32.260;2023-03-08T13:23:55;12.30;99.90
45319;DHT22;31057;48.498;32.260;2023-03-08T13:28:05;12.20;99.90
45319;DHT22;31057;48.498;32.260;2023-03-08T13:30:18;12.10;99.90
45319;DHT22;31057;48.498;32.260;2023-03-08T13:32:20;12.10;99.90
45319;DHT22;31057;48.498;32.260;2023-03-08T13:34:25;12.10;99.90
45319;DHT22;31057;48.498;32.260;2023-03-08T13:36:31;12.00;99.90
45319;DHT22;31057;48.498;32.260;2023-03-08T13:38:34;11.90;99.90
45319;DHT22;31057;48.498;32.260;2023-03-08T13:40:36;12.00;99.90
45319;DHT22;31057;48.498;32.260;2023-03-08T13:42:38;12.00;99.90
45319;DHT22;31057;48.498;32.260;2023-03-08T13:44:53;12.00;99.90
45319;DHT22;31057;48.498;32.260;2023-03-08T13:49:37;12.20;99.90
45319;DHT22;31057;48.498;32.260;2023-03-08T13:51:43;12.10;99.90
45319;DHT22;31057;48.498;32.260;2023-03-08T13:53:45;12.00;99.90
45319;DHT22;31057;48.498;32.260;2023-03-08T13:55:47;11.90;99.90
45319;DHT22;31057;48.498;32.260;2023-03-08T13:57:52;11.80;99.90
45319;DHT22;31057;48.498;32.260;2023-03-08T13:59:55;11.70;99.90
45319;DHT22;31057;48.498;32.260;2023-03-08T14:01:57;11.70;99.90
45319;DHT22;31057;48.498;32.260;2023-03-08T14:03:59;11.70;99.90
45319;DHT22;31057;48.498;32.260;2023-03-08T14:06:17;11.70;99.90
45319;DHT22;31057;48.498;32.260;2023-03-08T14:08:23;11.70;99.90
45319;DHT22;31057;48.498;32.260;2023-03-08T14:10:28;11.80;99.90